^^
Station Historical Data
 
Daily Summary for September 25, 2018 Units:  English    Metric   Both
« Previous Day
Next Day »
Daily Weekly Monthly Yearly Custom
  Current: High: Low: Average:
Temperature: 82.6 °F TemperatureF °F 74.1 °F 75.6 °F
Dew Point: 73.8 °F DewpointF °F 72.7 °F 73 °F
Humidity: 75% Humidity% 75% 91%
Wind Speed: 0mph WindSpeedMPHmph 0mph 0mph
Wind Gust: 2.5mph WindSpeedGustMPHmph - -
WindCalm - - SSE
Pressure: 30.05 in PressureIn in 29.99 in -
Precipitation: 0 in      
Historical Graphs
 
 
Tabular Data for September 25, 2018
Time Temperature Dew Point Pressure Wind Wind Speed Wind Gust Humidity Rainfall Rate (Hourly) solar
TemperatureF °F DewpointF °F PressureIn in Calm     Humidity% HourlyPrecipIn in SolarRadiationWatts/m^2 W/m2
00:04 78.6 °F 74.5 °F 30.03 in Calm     87% 0 in 0.00 W/m2
00:09 78.4 °F 74.3 °F 30.04 in Calm     87% 0 in 0.00 W/m2
00:14 78.3 °F 74.5 °F 30.03 in Calm     88% 0 in 0.00 W/m2
00:19 78.1 °F 74.3 °F 30.03 in Calm     88% 0 in 0.00 W/m2
00:24 77.9 °F 74.1 °F 30.03 in Calm     88% 0 in 0.00 W/m2
00:29 77.7 °F 73.9 °F 30.03 in Calm     88% 0 in 0.00 W/m2
00:34 77.7 °F 74.3 °F 30.03 in Calm     89% 0 in 0.00 W/m2
00:39 77.5 °F 74.1 °F 30.03 in Calm     89% 0 in 0.00 W/m2
00:44 77.5 °F 74.1 °F 30.03 in Calm     89% 0 in 0.00 W/m2
00:49 77.5 °F 74.3 °F 30.03 in Calm     90% 0 in 0.00 W/m2
00:54 77.4 °F 74.1 °F 30.03 in Calm     90% 0 in 0.00 W/m2
00:59 77.4 °F 74.1 °F 30.03 in Calm     90% 0 in 0.00 W/m2
01:04 77.2 °F 73.9 °F 30.02 in Calm     90% 0 in 0.00 W/m2
01:09 77.2 °F 73.9 °F 30.03 in Calm     90% 0 in 0.00 W/m2
01:14 77 °F 73.8 °F 30.02 in Calm     90% 0 in 0.00 W/m2
01:19 77 °F 74.1 °F 30.01 in Calm     91% 0 in 0.00 W/m2
01:24 77 °F 74.1 °F 30.03 in Calm     91% 0 in 0.00 W/m2
01:29 77 °F 74.1 °F 30.01 in Calm     91% 0 in 0.00 W/m2
01:34 77 °F 74.1 °F 30.02 in Calm     91% 0 in 0.00 W/m2
01:39 76.8 °F 74.3 °F 30.01 in Calm     92% 0 in 0.00 W/m2
01:44 76.8 °F 74.3 °F 30.01 in Calm     92% 0 in 0.00 W/m2
01:49 76.8 °F 74.3 °F 30.01 in Calm     92% 0 in 0.00 W/m2
01:54 76.8 °F 74.3 °F 30.01 in Calm     92% 0 in 0.00 W/m2
01:59 76.8 °F 74.3 °F 30.01 in Calm     92% 0 in 0.00 W/m2
02:04 76.8 °F 74.3 °F 30.01 in Calm     92% 0 in 0.00 W/m2
02:08 76.8 °F 74.3 °F 30.01 in Calm     92% 0 in 0.00 W/m2
02:13 76.8 °F 74.3 °F 30.01 in Calm     92% 0 in 0.00 W/m2
02:19 76.8 °F 74.3 °F 30.01 in Calm     92% 0 in 0.00 W/m2
02:24 76.8 °F 74.3 °F 30.01 in Calm     92% 0 in 0.00 W/m2
02:29 76.8 °F 74.3 °F 30.00 in Calm     92% 0 in 0.00 W/m2
02:34 76.8 °F 74.3 °F 30.01 in Calm     92% 0 in 0.00 W/m2
02:39 76.8 °F 74.3 °F 30.01 in Calm     92% 0 in 0.00 W/m2
02:44 76.8 °F 74.3 °F 30.00 in Calm     92% 0 in 0.00 W/m2
02:49 76.6 °F 74.1 °F 30.00 in Calm     92% 0 in 0.00 W/m2
02:54 76.5 °F 74.3 °F 30.00 in Calm     93% 0 in 0.00 W/m2
02:59 76.3 °F 73.8 °F 30.00 in Calm     92% 0 in 0.00 W/m2
03:04 76.1 °F 73.9 °F 30.00 in Calm     93% 0 in 0.00 W/m2
03:09 75.7 °F 73.6 °F 30.00 in Calm     93% 0 in 0.00 W/m2
03:14 75.6 °F 73.4 °F 30.00 in Calm     93% 0 in 0.00 W/m2
03:19 75.2 °F 73 °F 29.99 in Calm     93% 0 in 0.00 W/m2
03:24 75.4 °F 73.2 °F 30.00 in Calm     93% 0 in 0.00 W/m2
03:29 75.2 °F 72.7 °F 30.00 in Calm     92% 0 in 0.00 W/m2
03:34 75.4 °F 73.2 °F 30.00 in Calm     93% 0 in 0.00 W/m2
03:39 75.4 °F 73.2 °F 29.99 in Calm     93% 0 in 0.00 W/m2
03:44 75.6 °F 73.4 °F 29.99 in Calm     93% 0 in 0.00 W/m2
03:49 75.4 °F 73.2 °F 30.00 in Calm     93% 0 in 0.00 W/m2
03:54 75.6 °F 73 °F 30.00 in Calm     92% 0 in 0.00 W/m2
03:59 75.7 °F 73.6 °F 30.00 in Calm     93% 0 in 0.00 W/m2
04:04 75.6 °F 73.8 °F 30.00 in Calm     94% 0 in 0.00 W/m2
04:09 75.6 °F 73.8 °F 29.99 in Calm     94% 0 in 0.00 W/m2
04:14 75.6 °F 73.8 °F 30.00 in Calm     94% 0 in 0.00 W/m2
04:19 75.7 °F 73.6 °F 30.00 in Calm     93% 0 in 0.00 W/m2
04:24 75.7 °F 73.9 °F 30.00 in Calm     94% 0 in 0.00 W/m2
04:29 75.6 °F 73.8 °F 30.00 in Calm     94% 0 in 0.00 W/m2
04:34 75.6 °F 73.8 °F 30.00 in Calm     94% 0 in 0.00 W/m2
04:39 75.4 °F 73.6 °F 30.01 in Calm     94% 0 in 0.00 W/m2
04:44 75.4 °F 73.6 °F 30.00 in Calm     94% 0 in 0.00 W/m2
04:49 75.2 °F 73.4 °F 30.00 in Calm     94% 0 in 0.00 W/m2
04:54 75 °F 73.2 °F 30.00 in Calm     94% 0 in 0.00 W/m2
04:59 75 °F 73.2 °F 30.00 in Calm     94% 0 in 0.00 W/m2
05:04 75 °F 73.2 °F 30.00 in Calm     94% 0 in 0.00 W/m2
05:09 75 °F 73.2 °F 30.00 in Calm     94% 0 in 0.00 W/m2
05:14 75 °F 73.2 °F 30.00 in Calm     94% 0 in 0.00 W/m2
05:19 75 °F 73.2 °F 30.00 in Calm     94% 0 in 0.00 W/m2
05:24 75 °F 73.2 °F 30.00 in Calm     94% 0 in 0.00 W/m2
05:29 75 °F 73.2 °F 30.00 in Calm     94% 0 in 0.00 W/m2
05:34 75 °F 73.2 °F 30.01 in Calm     94% 0 in 0.00 W/m2
05:39 75 °F 73.2 °F 30.00 in Calm     94% 0 in 0.00 W/m2
05:44 75 °F 73.2 °F 30.01 in Calm     94% 0 in 0.00 W/m2
05:49 75 °F 73.2 °F 30.00 in Calm     94% 0 in 0.00 W/m2
05:54 75 °F 73.2 °F 30.00 in Calm     94% 0 in 0.00 W/m2
05:59 75 °F 73.2 °F 30.01 in Calm     94% 0 in 0.00 W/m2
06:04 75 °F 73.2 °F 30.01 in Calm     94% 0 in 0.00 W/m2
06:09 75 °F 73.2 °F 30.01 in Calm     94% 0 in 0.00 W/m2
06:14 75 °F 73.4 °F 30.01 in Calm     95% 0 in 0.00 W/m2
06:19 75 °F 73.4 °F 30.01 in Calm     95% 0 in 0.00 W/m2
06:24 75 °F 73.4 °F 30.01 in Calm     95% 0 in 0.00 W/m2
06:29 75 °F 73.4 °F 30.02 in Calm     95% 0 in 0.00 W/m2
06:34 74.8 °F 73.2 °F 30.01 in Calm     95% 0 in 0.00 W/m2
06:39 74.8 °F 73.2 °F 30.01 in Calm     95% 0 in 0.00 W/m2
06:44 74.8 °F 73.2 °F 30.02 in Calm     95% 0 in 0.00 W/m2
06:49 74.8 °F 73.2 °F 30.02 in Calm     95% 0 in 0.00 W/m2
06:54 74.8 °F 73.2 °F 30.03 in Calm     95% 0 in 0.00 W/m2
06:59 74.7 °F 73.2 °F 30.02 in Calm     95% 0 in 0.00 W/m2
07:04 74.7 °F 73.2 °F 30.02 in Calm     95% 0 in 0.00 W/m2
07:09 74.7 °F 73.2 °F 30.02 in Calm     95% 0 in 0.00 W/m2
07:14 74.5 °F 73 °F 30.03 in Calm     95% 0 in 0.00 W/m2
07:19 74.5 °F 73 °F 30.03 in Calm     95% 0 in 0.00 W/m2
07:24 74.3 °F 72.9 °F 30.03 in Calm     95% 0 in 1.00 W/m2
07:29 74.3 °F 72.9 °F 30.03 in Calm     95% 0 in 3.00 W/m2
07:34 74.1 °F 72.7 °F 30.03 in Calm     95% 0 in 5.00 W/m2
07:39 74.1 °F 72.7 °F 30.03 in Calm     95% 0 in 6.00 W/m2
07:44 74.1 °F 72.9 °F 30.04 in Calm     96% 0 in 8.00 W/m2
07:49 74.1 °F 72.9 °F 30.03 in Calm     96% 0 in 10.00 W/m2
07:54 74.3 °F 73 °F 30.04 in Calm     96% 0 in 11.00 W/m2
07:59 74.3 °F 73 °F 30.03 in Calm     96% 0 in 12.00 W/m2
08:04 74.5 °F 73.2 °F 30.03 in Calm     96% 0 in 14.00 W/m2
08:09 74.7 °F 73.4 °F 30.04 in Calm     96% 0 in 13.00 W/m2
08:14 74.7 °F 73.4 °F 30.04 in Calm     96% 0 in 14.00 W/m2
08:19 74.7 °F 73.4 °F 30.04 in Calm     96% 0 in 16.00 W/m2
08:24 75 °F 73.4 °F 30.05 in Calm     95% 0 in 18.00 W/m2
08:29 75.2 °F 73.6 °F 30.04 in Calm     95% 0 in 19.00 W/m2
08:34 75.6 °F 73.9 °F 30.04 in Calm     95% 0 in 20.00 W/m2
08:39 75.9 °F 74.1 °F 30.04 in Calm     94% 0 in 22.00 W/m2
08:44 76.3 °F 74.5 °F 30.05 in Calm     94% 0 in 23.00 W/m2
08:49 76.8 °F 75 °F 30.04 in Calm     94% 0 in 24.00 W/m2
08:53 77 °F 74.8 °F 30.05 in Calm   2.5 mph 93% 0 in 25.00 W/m2
08:59 77.5 °F 74.7 °F 30.04 in Calm     91% 0 in 27.00 W/m2
09:04 78.1 °F 74.5 °F 30.06 in Calm   4.9 mph 89% 0 in 28.00 W/m2
09:09 78.4 °F 74.3 °F 30.05 in Calm   4.9 mph 87% 0 in 30.00 W/m2
09:14 79.2 °F 73.6 °F 30.05 in Calm     83% 0 in 32.00 W/m2
09:19 79.7 °F 73.8 °F 30.05 in Calm   2.5 mph 82% 0 in 34.00 W/m2
09:24 80.2 °F 73.6 °F 30.05 in Calm   2.5 mph 80% 0 in 37.00 W/m2
09:29 80.8 °F 73.6 °F 30.05 in SSE 0.2 mph 2.5 mph 79% 0 in 39.00 W/m2
09:34 81.1 °F 73.6 °F 30.05 in Calm     78% 0 in 41.00 W/m2
09:39 81.7 °F 73.8 °F 30.05 in Calm     77% 0 in 51.00 W/m2
09:44 82.2 °F 73.9 °F 30.06 in Calm   2.5 mph 76% 0 in 44.00 W/m2
09:49 82.6 °F 73.8 °F 30.05 in Calm   2.5 mph 75% 0 in 65.00 W/m2
Spring Hill, FL, USA
Compliments of Weather Underground - 2.75 mb